Time;durP1;ratioP1;P1;durP2;ratioP2;P2;SDS_P1;SDS_P2;PMS_P1;PMS_P2;Temp;Humidity;BMP_temperature;BMP_pressure;BME280_temperature;BME280_humidity;BME280_pressure;Samples;Min_cycle;Max_cycle;Signal;HPM_P1;HPM_P2
2022/11/03 00:01:59;;;;;;;14.93;11.83;;;;;;;7.47;100.00;97150.72;4953715;29;20189;-81
2022/11/03 00:04:24;;;;;;;16.23;10.90;;;;;;;7.47;100.00;97147.31;4950306;29;20240;-81
2022/11/03 00:06:51;;;;;;;12.63;11.33;;;;;;;7.57;100.00;97152.97;4937534;29;20189;-81
2022/11/03 00:09:18;;;;;;;14.83;12.07;;;;;;;7.42;100.00;97155.72;4933183;29;20200;-81
2022/11/03 00:11:46;;;;;;;16.20;10.80;;;;;;;7.43;100.00;97153.94;4954981;29;20717;-81
2022/11/03 00:14:16;;;;;;;15.47;11.90;;;;;;;7.42;100.00;97152.31;4950158;29;20230;-81
2022/11/03 00:16:42;;;;;;;15.37;11.57;;;;;;;7.40;100.00;97149.94;4954895;29;20234;-81
2022/11/03 00:19:08;;;;;;;14.63;11.60;;;;;;;7.38;100.00;97153.72;4948682;29;20237;-81
2022/11/03 00:21:34;;;;;;;15.97;11.73;;;;;;;7.39;100.00;97137.09;4951010;29;20197;-80
2022/11/03 00:24:01;;;;;;;14.50;11.30;;;;;;;7.32;100.00;97149.28;4954081;29;20239;-80
2022/11/03 00:26:28;;;;;;;13.33;11.10;;;;;;;7.30;100.00;97138.28;4960248;29;20204;-81
2022/11/03 00:28:56;;;;;;;13.97;10.57;;;;;;;7.35;100.00;97141.91;4936992;29;20244;-81
2022/11/03 00:31:27;;;;;;;12.97;11.60;;;;;;;7.33;100.00;97145.69;4951951;29;20717;-82
2022/11/03 00:33:53;;;;;;;17.50;12.13;;;;;;;7.32;100.00;97137.06;4951485;29;20174;-81
2022/11/03 00:36:24;;;;;;;13.50;11.67;;;;;;;7.21;100.00;97131.63;4948389;29;20229;-81
2022/11/03 00:38:50;;;;;;;13.40;11.53;;;;;;;7.12;100.00;97124.97;4968219;28;20189;-82
2022/11/03 00:41:17;;;;;;;14.43;13.10;;;;;;;7.16;100.00;97118.38;4954866;29;20237;-81
2022/11/03 00:43:42;;;;;;;16.27;13.17;;;;;;;7.25;100.00;97117.19;4942822;29;20597;-82
2022/11/03 00:46:08;;;;;;;16.73;12.13;;;;;;;7.19;100.00;97104.97;4954541;29;20244;-82
2022/11/03 00:48:35;;;;;;;17.67;12.67;;;;;;;7.19;100.00;97105.72;4954474;29;20639;-82
2022/11/03 00:51:12;;;;;;;14.93;11.97;;;;;;;7.12;100.00;97099.72;4955059;29;20245;-82
2022/11/03 00:53:42;;;;;;;16.27;12.37;;;;;;;7.23;100.00;97093.94;4940438;29;20276;-82
2022/11/03 00:56:13;;;;;;;13.80;12.27;;;;;;;7.29;100.00;97090.53;4953948;29;20193;-82
2022/11/03 00:58:41;;;;;;;18.03;13.70;;;;;;;7.15;100.00;97088.09;4954712;29;20587;-82
2022/11/03 01:01:10;;;;;;;19.40;12.93;;;;;;;7.16;100.00;97081.88;4954542;29;20177;-83
2022/11/03 01:03:37;;;;;;;14.60;13.10;;;;;;;7.12;100.00;97084.09;4953549;29;20192;-82
2022/11/03 01:08:51;;;;;;;15.37;13.27;;;;;;;7.00;100.00;97081.25;4941393;29;20238;-82
2022/11/03 01:14:04;;;;;;;16.20;13.23;;;;;;;7.01;100.00;97082.84;4953715;29;20240;-82
2022/11/03 01:16:30;;;;;;;15.83;13.27;;;;;;;7.08;100.00;97072.44;4952970;29;20646;-82
2022/11/03 01:18:56;;;;;;;19.20;14.03;;;;;;;7.06;100.00;97072.66;4954055;29;20193;-82
2022/11/03 01:21:21;;;;;;;19.53;12.43;;;;;;;6.99;100.00;97073.63;4954467;29;20221;-82
2022/11/03 01:23:47;;;;;;;17.30;12.57;;;;;;;6.99;100.00;97055.38;4953393;29;20197;-82
2022/11/03 01:26:13;;;;;;;14.67;12.00;;;;;;;7.00;100.00;97064.81;4954273;29;20186;-82
2022/11/03 01:28:42;;;;;;;17.70;11.67;;;;;;;6.99;100.00;97055.38;4953663;29;20212;-82
2022/11/03 01:31:15;;;;;;;15.60;11.93;;;;;;;7.01;100.00;97056.81;4953870;29;20267;-81
2022/11/03 01:33:41;;;;;;;18.93;12.27;;;;;;;7.00;100.00;97049.16;4937620;29;20189;-81
2022/11/03 01:36:07;;;;;;;17.57;13.17;;;;;;;6.94;100.00;97055.97;4953662;29;20741;-81
2022/11/03 01:38:34;;;;;;;16.67;13.40;;;;;;;6.97;100.00;97045.16;4954145;29;20213;-80
2022/11/03 01:41:01;;;;;;;17.57;13.50;;;;;;;7.05;100.00;97044.16;4941971;29;20204;-81
2022/11/03 01:43:30;;;;;;;13.43;11.73;;;;;;;7.07;100.00;97044.78;4954389;29;20316;-81
2022/11/03 01:45:58;;;;;;;13.53;11.53;;;;;;;7.07;100.00;97034.34;4954040;29;20193;-81
2022/11/03 01:48:24;;;;;;;17.67;12.07;;;;;;;7.10;100.00;97034.75;4953880;29;20185;-81
2022/11/03 01:50:50;;;;;;;18.13;12.57;;;;;;;7.01;100.00;97032.53;4954227;29;20193;-82
2022/11/03 01:53:17;;;;;;;15.50;12.27;;;;;;;7.07;100.00;97029.94;4954155;29;20182;-81
2022/11/03 01:55:45;;;;;;;16.30;11.67;;;;;;;7.08;100.00;97035.94;4955587;28;20194;-81
2022/11/03 01:58:25;;;;;;;17.53;12.17;;;;;;;7.14;100.00;97035.16;4957382;29;20201;-81
2022/11/03 02:00:53;;;;;;;16.53;11.27;;;;;;;7.14;100.00;97022.13;4957814;29;20177;-81
2022/11/03 02:03:20;;;;;;;17.83;12.03;;;;;;;7.24;100.00;97019.94;4957333;29;20193;-82
2022/11/03 02:05:48;;;;;;;20.53;12.37;;;;;;;7.25;100.00;97018.13;4957579;29;20185;-81
2022/11/03 02:08:21;;;;;;;19.43;13.90;;;;;;;7.29;100.00;97012.31;4957566;29;20229;-82
2022/11/03 02:10:48;;;;;;;20.87;14.97;;;;;;;7.26;100.00;97014.50;4953527;29;20186;-82
2022/11/03 02:13:23;;;;;;;20.93;14.20;;;;;;;7.15;100.00;97010.69;4952042;29;20276;-81
2022/11/03 02:15:51;;;;;;;22.57;15.07;;;;;;;7.23;100.00;97001.88;4957371;29;20199;-82
2022/11/03 02:18:21;;;;;;;17.23;15.43;;;;;;;7.18;100.00;96999.09;4950890;29;20221;-82
2022/11/03 02:20:57;;;;;;;16.63;14.73;;;;;;;7.19;100.00;96996.25;4954753;29;20208;-81
2022/11/03 02:23:32;;;;;;;23.13;15.63;;;;;;;7.23;100.00;97001.88;4929860;29;20186;-81
2022/11/03 02:25:59;;;;;;;14.00;12.37;;;;;;;7.19;100.00;96995.47;4952411;29;20188;-82
2022/11/03 02:28:28;;;;;;;15.83;14.10;;;;;;;7.25;100.00;96994.66;4951585;29;20205;-82
2022/11/03 02:31:12;;;;;;;17.87;13.70;;;;;;;7.28;100.00;96991.66;4957272;29;20181;-82
2022/11/03 02:33:58;;;;;;;17.00;14.40;;;;;;;7.25;100.00;96986.84;4952647;29;20192;-81
2022/11/03 02:36:31;;;;;;;18.50;14.10;;;;;;;7.22;100.00;96990.66;4956394;29;20321;-82
2022/11/03 02:39:06;;;;;;;16.00;13.23;;;;;;;7.23;100.00;96991.47;4953974;29;20192;-81
2022/11/03 02:41:35;;;;;;;16.03;12.37;;;;;;;7.25;100.00;96982.44;4952061;29;20177;-82
2022/11/03 02:44:03;;;;;;;18.43;12.67;;;;;;;7.27;100.00;96979.63;4952574;29;20275;-81
2022/11/03 02:46:30;;;;;;;15.87;13.03;;;;;;;7.27;100.00;96975.22;4952644;29;20225;-81
2022/11/03 02:48:56;;;;;;;14.83;11.53;;;;;;;7.28;100.00;96969.00;4957929;29;20184;-80
2022/11/03 02:51:22;;;;;;;18.43;11.83;;;;;;;7.33;100.00;96976.22;4950312;29;20244;-81
2022/11/03 02:54:15;;;;;;;14.43;11.17;;;;;;;7.32;100.00;96974.59;4955480;29;20193;-80
2022/11/03 02:57:00;;;;;;;16.00;10.90;;;;;;;7.29;100.00;96959.38;4959884;29;20212;-81
2022/11/03 02:59:36;;;;;;;19.17;10.90;;;;;;;7.30;100.00;96961.75;4956973;29;20635;-81
2022/11/03 03:02:11;;;;;;;19.70;11.33;;;;;;;7.24;100.00;96957.38;4948484;29;20181;-81
2022/11/03 03:04:43;;;;;;;14.10;10.50;;;;;;;7.23;100.00;96957.56;4954568;28;20705;-81
2022/11/03 03:07:16;;;;;;;15.63;10.60;;;;;;;7.18;100.00;96942.53;4955405;28;20201;-81
2022/11/03 03:09:57;;;;;;;15.90;9.77;;;;;;;7.15;100.00;96935.09;4955820;29;20650;-81
2022/11/03 03:12:25;;;;;;;14.43;10.97;;;;;;;7.17;100.00;96933.13;4956365;29;20181;-81
2022/11/03 03:14:54;;;;;;;18.00;11.53;;;;;;;7.11;100.00;96926.09;4956361;29;20221;-81
2022/11/03 03:17:30;;;;;;;19.73;10.63;;;;;;;7.15;100.00;96923.88;4937856;29;20219;-82
2022/11/03 03:20:00;;;;;;;21.17;10.47;;;;;;;7.08;100.00;96929.91;4955931;29;20178;-81
2022/11/03 03:22:34;;;;;;;16.40;11.47;;;;;;;7.14;100.00;96919.66;4955815;29;20553;-81
2022/11/03 03:25:03;;;;;;;14.17;10.67;;;;;;;7.06;100.00;96924.09;4956091;29;20215;-81
2022/11/03 03:27:32;;;;;;;14.47;10.40;;;;;;;7.06;100.00;96918.09;4937544;29;20186;-81
2022/11/03 03:30:04;;;;;;;16.00;10.60;;;;;;;7.10;100.00;96912.25;4956082;29;20189;-82
2022/11/03 03:32:36;;;;;;;14.03;10.40;;;;;;;7.06;100.00;96907.66;4955648;29;20236;-80
2022/11/03 03:35:06;;;;;;;15.83;10.50;;;;;;;7.06;100.00;96900.66;4955797;29;20227;-80
2022/11/03 03:37:36;;;;;;;12.97;11.00;;;;;;;7.06;100.00;96902.44;4955046;29;20659;-81
2022/11/03 03:40:07;;;;;;;19.60;11.97;;;;;;;7.01;100.00;96900.44;4954764;29;20196;-82
2022/11/03 03:42:35;;;;;;;16.03;11.80;;;;;;;7.01;100.00;96902.25;4955682;29;20257;-82
2022/11/03 03:45:01;;;;;;;15.20;11.53;;;;;;;7.08;100.00;96898.63;4955878;29;20208;-82
2022/11/03 03:47:29;;;;;;;12.10;10.97;;;;;;;7.05;100.00;96893.81;4955700;29;20193;-81
2022/11/03 03:49:55;;;;;;;14.73;12.00;;;;;;;6.96;100.00;96891.63;4954823;29;20244;-81
2022/11/03 03:52:21;;;;;;;14.37;11.40;;;;;;;6.95;100.00;96877.81;4955460;29;20244;-81
2022/11/03 03:54:47;;;;;;;13.40;12.13;;;;;;;6.94;100.00;96878.78;4955465;29;20642;-82
2022/11/03 03:57:19;;;;;;;17.43;13.13;;;;;;;6.90;100.00;96874.19;4955302;29;20216;-82
2022/11/03 03:59:45;;;;;;;22.27;13.47;;;;;;;6.84;100.00;96873.19;4955257;29;20272;-82
2022/11/03 04:02:12;;;;;;;15.30;13.80;;;;;;;6.75;100.00;96863.97;4955192;29;20976;-81
2022/11/03 04:04:37;;;;;;;17.60;14.00;;;;;;;6.67;100.00;96859.78;4955080;29;20685;-81
2022/11/03 04:09:46;;;;;;;21.63;15.63;;;;;;;6.51;100.00;96859.34;4954435;29;20272;-81
2022/11/03 04:23:11;;;;;;;19.00;16.17;;;;;;;6.51;100.00;96828.09;4946841;29;20185;-81
2022/11/03 04:25:36;;;;;;;16.60;14.93;;;;;;;6.46;100.00;96833.13;4947523;29;20185;-81
2022/11/03 04:28:10;;;;;;;22.27;16.67;;;;;;;6.28;100.00;96831.09;4949572;29;20201;-81
2022/11/03 04:30:36;;;;;;;21.50;15.53;;;;;;;6.31;100.00;96829.88;4954588;29;20200;-81
2022/11/03 04:33:01;;;;;;;18.97;16.17;;;;;;;6.20;100.00;96831.25;4954839;29;20654;-81
2022/11/03 04:35:27;;;;;;;20.70;16.53;;;;;;;6.14;100.00;96822.44;4954399;29;20666;-81
2022/11/03 04:38:21;;;;;;;23.67;19.73;;;;;;;6.14;100.00;96826.84;4950900;29;20340;-81
2022/11/03 04:40:49;;;;;;;27.60;19.83;;;;;;;6.03;100.00;96820.41;4951446;29;20283;-81
2022/11/03 04:43:18;;;;;;;24.07;18.07;;;;;;;6.09;100.00;96813.63;4954301;29;20662;-81
2022/11/03 04:45:48;;;;;;;22.17;17.37;;;;;;;6.17;100.00;96814.25;4954197;29;20662;-82
2022/11/03 04:48:17;;;;;;;18.10;16.30;;;;;;;6.11;100.00;96811.63;4951819;29;20264;-81
2022/11/03 04:50:45;;;;;;;21.83;16.20;;;;;;;5.93;100.00;96804.41;4946576;29;20193;-81
2022/11/03 04:53:13;;;;;;;17.70;15.97;;;;;;;5.96;100.00;96811.81;4954049;29;20201;-81
2022/11/03 04:55:44;;;;;;;18.63;16.30;;;;;;;5.95;100.00;96799.81;4953188;29;20193;-81
2022/11/03 04:58:19;;;;;;;19.03;17.03;;;;;;;5.95;100.00;96799.00;4939200;29;20233;-81
2022/11/03 05:00:45;;;;;;;22.03;17.07;;;;;;;6.03;100.00;96796.19;4954421;29;20180;-80
2022/11/03 05:03:18;;;;;;;17.67;15.87;;;;;;;5.97;100.00;96792.59;4954155;29;20185;-80
2022/11/03 05:05:44;;;;;;;21.63;17.37;;;;;;;5.99;100.00;96793.22;4954404;29;20193;-80
2022/11/03 05:08:10;;;;;;;22.70;16.63;;;;;;;5.96;100.00;96798.00;4953410;29;20197;-80
2022/11/03 05:10:36;;;;;;;20.03;17.33;;;;;;;6.01;100.00;96793.81;4954537;29;20611;-81
2022/11/03 05:13:01;;;;;;;18.00;16.20;;;;;;;5.96;100.00;96780.59;4954118;29;20185;-82
2022/11/03 05:15:35;;;;;;;22.93;16.07;;;;;;;5.97;100.00;96773.56;4953468;29;20971;-80
2022/11/03 05:18:17;;;;;;;20.10;16.73;;;;;;;6.04;100.00;96777.00;4954205;29;20221;-82
2022/11/03 05:20:53;;;;;;;19.50;14.93;;;;;;;6.05;100.00;96774.22;4954733;29;20189;-81
2022/11/03 05:23:20;;;;;;;22.40;14.27;;;;;;;6.15;100.00;96772.00;4954100;29;20525;-81
2022/11/03 05:25:51;;;;;;;18.47;14.87;;;;;;;6.14;100.00;96767.00;4953478;29;20193;-81
2022/11/03 05:28:26;;;;;;;20.57;13.83;;;;;;;6.14;100.00;96761.78;4953218;29;20265;-81
2022/11/03 05:30:52;;;;;;;17.50;14.40;;;;;;;6.13;100.00;96761.00;4955768;28;20216;-82
2022/11/03 05:33:22;;;;;;;20.33;15.17;;;;;;;6.07;100.00;96758.41;4957820;29;20515;-81
2022/11/03 05:35:47;;;;;;;19.03;12.77;;;;;;;6.12;100.00;96745.59;4939704;29;20193;-81
2022/11/03 05:38:15;;;;;;;16.97;12.93;;;;;;;6.16;100.00;96739.78;4957377;29;20729;-82
2022/11/03 05:40:41;;;;;;;19.27;14.20;;;;;;;6.19;100.00;96744.59;4957653;29;20189;-81
2022/11/03 05:43:09;;;;;;;18.93;14.60;;;;;;;6.18;100.00;96739.59;4957574;29;20689;-81
2022/11/03 05:45:36;;;;;;;21.87;13.80;;;;;;;6.13;100.00;96737.56;4956908;29;20293;-82
2022/11/03 05:48:10;;;;;;;16.93;14.13;;;;;;;6.21;100.00;96737.38;4957859;29;20185;-82
2022/11/03 05:50:35;;;;;;;22.17;14.80;;;;;;;6.26;100.00;96731.59;4947392;29;20727;-81
2022/11/03 05:53:28;;;;;;;21.17;13.60;;;;;;;6.13;100.00;96724.56;4955286;29;20192;-81
2022/11/03 05:55:57;;;;;;;16.73;13.63;;;;;;;6.09;100.00;96728.56;4957706;29;20185;-81
2022/11/03 05:58:28;;;;;;;25.40;15.00;;;;;;;6.10;100.00;96726.78;4956169;29;20617;-82
2022/11/03 06:00:54;;;;;;;20.43;14.30;;;;;;;6.09;100.00;96720.78;4955003;29;20189;-81
2022/11/03 06:03:26;;;;;;;19.73;13.53;;;;;;;6.13;100.00;96723.78;4957081;29;20174;-81
2022/11/03 06:05:52;;;;;;;19.33;14.30;;;;;;;6.20;100.00;96720.16;4957445;29;20606;-80
2022/11/03 06:08:20;;;;;;;19.43;14.73;;;;;;;6.16;100.00;96724.19;4952417;29;20185;-81
2022/11/03 06:10:52;;;;;;;17.67;14.13;;;;;;;6.17;100.00;96725.78;4952354;29;20243;-81
2022/11/03 06:13:23;;;;;;;23.73;14.30;;;;;;;6.24;100.00;96718.75;4956812;29;20196;-81
2022/11/03 06:15:53;;;;;;;16.93;14.07;;;;;;;6.25;100.00;96716.97;4955035;29;20189;-81
2022/11/03 06:18:21;;;;;;;17.77;14.87;;;;;;;6.17;100.00;96717.19;4948386;29;20216;-81
2022/11/03 06:20:53;;;;;;;20.10;14.53;;;;;;;6.33;100.00;96713.38;4955629;29;20240;-80
2022/11/03 06:23:19;;;;;;;23.07;15.10;;;;;;;6.30;100.00;96698.16;4957181;29;20181;-81
2022/11/03 06:25:45;;;;;;;18.97;15.03;;;;;;;6.30;100.00;96696.34;4949393;29;20185;-81
2022/11/03 06:28:28;;;;;;;18.23;14.83;;;;;;;6.33;100.00;96695.16;4946034;29;20196;-80
2022/11/03 06:30:54;;;;;;;17.90;15.20;;;;;;;6.31;100.00;96689.31;4954208;29;20185;-81
2022/11/03 06:33:28;;;;;;;19.70;14.20;;;;;;;6.37;100.00;96684.13;4945017;29;20185;-81
2022/11/03 06:35:59;;;;;;;17.50;14.37;;;;;;;6.32;100.00;96683.13;4951257;29;20185;-80
2022/11/03 06:38:28;;;;;;;17.97;14.23;;;;;;;6.55;100.00;96683.50;4953111;29;20678;-80
2022/11/03 06:40:54;;;;;;;19.30;14.80;;;;;;;6.67;100.00;96679.28;4952587;29;20194;-81
2022/11/03 06:43:30;;;;;;;20.03;14.40;;;;;;;6.69;100.00;96693.66;4955374;28;20193;-81
2022/11/03 06:46:01;;;;;;;17.73;14.13;;;;;;;6.81;100.00;96693.84;4957331;29;20165;-80
2022/11/03 06:48:28;;;;;;;14.97;13.43;;;;;;;6.91;100.00;96694.22;4950520;29;20193;-80
2022/11/03 06:50:56;;;;;;;20.83;18.70;;;;;;;6.98;100.00;96699.41;4954759;29;20178;-78
2022/11/03 06:53:25;;;;;;;17.07;12.93;;;;;;;7.10;100.00;96690.75;4939396;29;20189;-78
2022/11/03 06:55:51;;;;;;;17.40;13.00;;;;;;;7.15;100.00;96691.91;4955633;29;20761;-78
2022/11/03 06:58:33;;;;;;;17.93;12.63;;;;;;;7.19;100.00;96685.31;4951270;29;20220;-79
2022/11/03 07:01:02;;;;;;;18.00;13.73;;;;;;;7.28;100.00;96690.06;4940099;29;20648;-79
2022/11/03 07:03:34;;;;;;;16.07;14.57;;;;;;;7.10;100.00;96688.13;4955275;29;20193;-79
2022/11/03 07:06:04;;;;;;;18.70;14.57;;;;;;;7.17;100.00;96690.72;4947984;29;20181;-74
2022/11/03 07:08:54;;;;;;;13.00;11.00;;;;;;;7.39;100.00;96672.97;4955587;29;20193;-77
2022/11/03 07:11:25;;;;;;;15.20;10.53;;;;;;;7.61;100.00;96673.44;4908246;29;20323;-76
2022/11/03 07:13:54;;;;;;;15.33;10.73;;;;;;;7.81;100.00;96674.91;4953558;29;20189;-77
2022/11/03 07:16:32;;;;;;;11.50;10.23;;;;;;;7.81;100.00;96668.88;4923273;29;20196;-73
2022/11/03 07:19:02;;;;;;;13.70;12.27;;;;;;;7.90;100.00;96659.78;4953899;29;20196;-74
2022/11/03 07:21:35;;;;;;;14.23;11.13;;;;;;;7.91;100.00;96654.34;4956177;29;20212;-74
2022/11/03 07:24:03;;;;;;;11.50;10.40;;;;;;;7.80;100.00;96652.41;4956051;29;20174;-74
2022/11/03 07:26:31;;;;;;;11.00;9.77;;;;;;;7.81;100.00;96650.63;4951000;29;20658;-74
2022/11/03 07:28:59;;;;;;;11.27;10.17;;;;;;;7.75;100.00;96646.25;4954977;29;20277;-74
2022/11/03 07:31:25;;;;;;;12.37;11.30;;;;;;;7.72;100.00;96637.03;4955998;29;20185;-74
2022/11/03 07:33:57;;;;;;;11.60;10.40;;;;;;;7.89;100.00;96642.53;4955954;29;20196;-74
2022/11/03 07:36:24;;;;;;;11.10;9.33;;;;;;;8.12;100.00;96644.56;4955724;29;20237;-74
2022/11/03 07:38:52;;;;;;;9.67;8.63;;;;;;;8.23;100.00;96642.06;4949716;29;20562;-74
2022/11/03 07:41:20;;;;;;;10.43;8.97;;;;;;;8.33;100.00;96642.38;4955085;29;20564;-75
2022/11/03 07:43:56;;;;;;;12.40;10.43;;;;;;;9.77;100.00;96632.94;4955157;29;20567;-76
2022/11/03 07:46:23;;;;;;;16.70;12.70;;;;;;;10.08;100.00;96637.91;4941017;29;20526;-76
2022/11/03 07:48:57;;;;;;;10.20;9.20;;;;;;;9.28;100.00;96631.44;4963506;28;20235;-78
2022/11/03 07:51:29;;;;;;;10.13;8.93;;;;;;;9.15;100.00;96624.56;4955481;29;20181;-77
2022/11/03 07:54:01;;;;;;;11.50;9.17;;;;;;;8.98;100.00;96623.56;4952410;28;20268;-77
2022/11/03 07:56:38;;;;;;;10.93;8.00;;;;;;;9.00;100.00;96622.34;4952080;29;20189;-77
2022/11/03 07:59:12;;;;;;;15.83;7.83;;;;;;;9.04;100.00;96623.50;4958000;29;20205;-78
2022/11/03 08:01:42;;;;;;;8.23;7.43;;;;;;;9.05;100.00;96617.25;4958618;29;20176;-78
2022/11/03 08:04:16;;;;;;;12.87;9.67;;;;;;;9.09;100.00;96612.38;4958563;29;20518;-77
2022/11/03 08:06:41;;;;;;;11.37;9.00;;;;;;;9.15;100.00;96616.72;4956017;29;20185;-78
2022/11/03 08:09:07;;;;;;;12.40;11.30;;;;;;;9.14;100.00;96602.03;4938250;29;20260;-77
2022/11/03 08:11:32;;;;;;;12.60;9.67;;;;;;;9.06;100.00;96605.78;4955497;29;20264;-78
2022/11/03 08:13:58;;;;;;;9.37;8.47;;;;;;;9.08;100.00;96605.56;4937444;29;20194;-78
2022/11/03 08:16:23;;;;;;;9.97;9.07;;;;;;;9.13;100.00;96593.44;4955796;29;20192;-78
2022/11/03 08:18:48;;;;;;;9.73;8.73;;;;;;;9.15;100.00;96585.34;4955176;29;20276;-78
2022/11/03 08:21:14;;;;;;;11.97;9.43;;;;;;;9.17;100.00;96589.34;4955289;29;20552;-79
2022/11/03 08:23:39;;;;;;;11.63;10.43;;;;;;;9.25;100.00;96577.75;4954374;29;20185;-78
2022/11/03 08:26:05;;;;;;;13.03;10.97;;;;;;;9.35;100.00;96572.00;4954140;29;20197;-78
2022/11/03 08:28:32;;;;;;;12.67;11.30;;;;;;;9.14;100.00;96568.06;4954227;29;20315;-78
2022/11/03 08:31:04;;;;;;;12.07;10.97;;;;;;;9.23;100.00;96565.94;4954603;29;20185;-78
2022/11/03 08:33:34;;;;;;;12.57;11.40;;;;;;;9.22;100.00;96561.72;4954518;29;20188;-78
2022/11/03 08:36:01;;;;;;;15.53;14.27;;;;;;;9.44;100.00;96562.81;4953983;29;21587;-78
2022/11/03 08:38:26;;;;;;;17.93;16.47;;;;;;;9.47;100.00;96559.75;4953340;29;20204;-78
2022/11/03 08:40:53;;;;;;;12.73;10.87;;;;;;;9.62;100.00;96559.31;4952823;29;20182;-79
2022/11/03 08:43:18;;;;;;;12.80;11.43;;;;;;;9.74;100.00;96555.69;4953967;29;20264;-78
2022/11/03 08:45:44;;;;;;;11.43;9.63;;;;;;;9.66;100.00;96556.00;4936502;29;20328;-78
2022/11/03 08:48:10;;;;;;;10.20;8.43;;;;;;;9.64;100.00;96549.44;4957798;28;20547;-78
2022/11/03 08:50:35;;;;;;;8.93;7.80;;;;;;;9.85;100.00;96547.03;4951554;29;20697;-78
2022/11/03 08:53:01;;;;;;;8.80;8.00;;;;;;;9.91;100.00;96542.72;4954339;29;20596;-79
2022/11/03 08:55:26;;;;;;;8.97;8.03;;;;;;;10.08;100.00;96543.63;4954344;29;20193;-79
2022/11/03 08:57:51;;;;;;;13.23;8.80;;;;;;;10.00;100.00;96543.97;4953762;29;20284;-78
2022/11/03 09:00:17;;;;;;;17.10;10.77;;;;;;;10.08;100.00;96535.78;4953103;29;20185;-78
2022/11/03 09:02:43;;;;;;;15.53;12.00;;;;;;;10.16;100.00;96540.69;4954075;29;20288;-78
2022/11/03 09:05:11;;;;;;;14.40;11.03;;;;;;;10.21;100.00;96540.78;4946998;28;20185;-78
2022/11/03 09:07:37;;;;;;;13.90;12.83;;;;;;;10.14;100.00;96536.69;4945598;29;20210;-78
2022/11/03 09:10:02;;;;;;;14.67;11.47;;;;;;;10.24;100.00;96540.34;4955638;29;20741;-78
2022/11/03 09:12:28;;;;;;;8.57;7.87;;;;;;;10.25;100.00;96535.91;4960268;28;20552;-78
2022/11/03 09:14:53;;;;;;;9.50;8.43;;;;;;;10.25;100.00;96539.28;4959450;28;20484;-79
2022/11/03 09:17:18;;;;;;;15.40;10.57;;;;;;;10.39;100.00;96534.59;4959244;28;20228;-78
2022/11/03 09:19:44;;;;;;;14.73;13.30;;;;;;;10.57;100.00;96531.84;4948605;28;20706;-79
2022/11/03 09:22:09;;;;;;;30.20;28.03;;;;;;;10.43;100.00;96533.91;4952966;28;20189;-79
2022/11/03 09:24:34;;;;;;;13.17;12.07;;;;;;;10.49;100.00;96526.16;4954690;29;20185;-79
2022/11/03 09:27:00;;;;;;;20.90;11.73;;;;;;;10.71;100.00;96529.72;4956670;29;21017;-79
2022/11/03 09:29:25;;;;;;;12.50;8.80;;;;;;;10.81;100.00;96522.06;4960190;29;20200;-79
2022/11/03 09:31:50;;;;;;;8.40;7.53;;;;;;;11.01;100.00;96521.63;4959801;28;20249;-79
2022/11/03 09:34:16;;;;;;;8.83;7.93;;;;;;;11.11;100.00;96516.56;4959670;29;20271;-79
2022/11/03 09:36:41;;;;;;;10.27;9.27;;;;;;;11.08;100.00;96509.19;4959217;29;20228;-78
2022/11/03 09:39:06;;;;;;;8.87;7.90;;;;;;;11.10;100.00;96514.97;4960100;28;20549;-78
2022/11/03 09:41:32;;;;;;;11.37;9.70;;;;;;;11.17;100.00;96519.03;4959874;29;20243;-78
2022/11/03 09:43:59;;;;;;;26.23;24.57;;;;;;;11.08;100.00;96515.22;4960091;29;20203;-78
2022/11/03 09:46:27;;;;;;;60.37;56.57;;;;;;;11.28;100.00;96520.00;4960325;28;20188;-78
2022/11/03 09:48:53;;;;;;;31.87;29.70;;;;;;;11.25;98.90;96507.38;4960573;29;20272;-78
2022/11/03 09:51:20;;;;;;;15.73;14.57;;;;;;;11.48;98.95;96503.81;4959957;28;20204;-78
2022/11/03 09:53:46;;;;;;;11.43;10.60;;;;;;;11.47;97.56;96500.38;4959964;28;20195;-78
2022/11/03 09:56:11;;;;;;;12.80;11.53;;;;;;;11.58;97.74;96501.34;4960849;29;20549;-77
2022/11/03 09:58:37;;;;;;;11.83;10.67;;;;;;;11.48;97.85;96501.19;4960123;29;20201;-78
2022/11/03 10:01:03;;;;;;;12.00;10.90;;;;;;;11.58;96.74;96491.63;4960261;29;20177;-77
2022/11/03 10:03:29;;;;;;;11.07;10.13;;;;;;;11.54;97.48;96485.25;4960487;28;20188;-77
2022/11/03 10:05:54;;;;;;;10.27;9.37;;;;;;;11.48;97.22;96478.34;4962217;29;20190;-78
2022/11/03 10:08:29;;;;;;;13.90;12.80;;;;;;;11.37;97.62;96473.97;4957229;29;20204;-78
2022/11/03 10:10:55;;;;;;;11.97;10.50;;;;;;;11.46;98.66;96474.38;4960462;29;20181;-78
2022/11/03 10:13:34;;;;;;;16.03;14.87;;;;;;;11.46;100.00;96477.00;4959616;28;20197;-78
2022/11/03 10:16:04;;;;;;;20.17;18.57;;;;;;;11.45;100.00;96476.19;4959861;28;20189;-78
2022/11/03 10:18:30;;;;;;;21.30;19.57;;;;;;;11.53;100.00;96472.41;4945364;29;20211;-78
2022/11/03 10:21:00;;;;;;;21.17;19.67;;;;;;;11.63;100.00;96462.03;4956504;29;20193;-78
2022/11/03 10:23:25;;;;;;;14.97;13.53;;;;;;;11.75;100.00;96460.16;4956635;29;20603;-77
2022/11/03 10:25:50;;;;;;;17.03;15.83;;;;;;;11.91;100.00;96458.50;4956216;29;20224;-78
2022/11/03 10:28:24;;;;;;;17.87;16.20;;;;;;;11.80;100.00;96462.84;4956896;29;20189;-77
2022/11/03 10:30:55;;;;;;;16.13;14.73;;;;;;;11.94;100.00;96450.94;4956814;29;20197;-78
2022/11/03 10:33:32;;;;;;;17.17;15.67;;;;;;;12.00;100.00;96442.09;4957150;29;20193;-77
2022/11/03 10:35:59;;;;;;;19.07;17.37;;;;;;;11.85;100.00;96439.28;4954068;29;20279;-78
2022/11/03 10:38:32;;;;;;;25.03;22.97;;;;;;;11.82;100.00;96438.94;4937070;29;20569;-78
2022/11/03 10:41:18;;;;;;;19.60;17.87;;;;;;;11.56;100.00;96441.19;4937762;29;20190;-78
2022/11/03 10:44:04;;;;;;;13.90;12.47;;;;;;;11.73;100.00;96430.69;4936920;29;20186;-78
2022/11/03 10:46:30;;;;;;;23.70;16.17;;;;;;;11.77;100.00;96429.16;4923331;29;20206;-80
2022/11/03 10:49:05;;;;;;;19.80;18.27;;;;;;;11.50;100.00;96428.25;4937653;29;20183;-78
2022/11/03 10:51:32;;;;;;;20.90;18.77;;;;;;;11.76;100.00;96421.56;4937752;29;20217;-78
2022/11/03 10:53:57;;;;;;;19.23;17.43;;;;;;;11.56;100.00;96417.56;4937091;29;20206;-77
2022/11/03 10:56:24;;;;;;;21.90;20.13;;;;;;;11.80;100.00;96406.91;4942594;29;20298;-77
2022/11/03 10:58:49;;;;;;;18.43;16.97;;;;;;;11.92;100.00;96408.38;4938256;29;20682;-78
2022/11/03 11:01:15;;;;;;;25.33;23.50;;;;;;;12.07;100.00;96405.94;4937441;29;20194;-78
2022/11/03 11:03:42;;;;;;;19.10;17.60;;;;;;;12.10;100.00;96409.88;4937151;29;20217;-78
2022/11/03 11:06:18;;;;;;;17.33;16.03;;;;;;;12.10;100.00;96404.63;4936964;29;20186;-78
2022/11/03 11:08:43;;;;;;;18.97;17.67;;;;;;;12.06;100.00;96409.59;4937185;29;20182;-78
2022/11/03 11:11:14;;;;;;;21.30;19.70;;;;;;;12.08;100.00;96404.09;4919675;29;20566;-78
2022/11/03 11:13:40;;;;;;;19.10;17.87;;;;;;;12.04;100.00;96388.03;4920089;29;20539;-78
2022/11/03 11:16:46;;;;;;;21.50;19.77;;;;;;;12.19;100.00;96379.53;4937275;29;20194;-78
2022/11/03 11:19:11;;;;;;;19.33;17.57;;;;;;;12.14;100.00;96371.59;4936773;29;20194;-78
2022/11/03 11:21:36;;;;;;;24.17;21.87;;;;;;;11.93;100.00;96370.56;4936680;29;20186;-78
2022/11/03 11:24:02;;;;;;;17.60;16.20;;;;;;;11.75;100.00;96365.63;4936342;29;20548;-78
2022/11/03 11:26:34;;;;;;;18.83;15.43;;;;;;;11.81;100.00;96362.03;4935749;29;20198;-78
2022/11/03 11:29:08;;;;;;;13.27;11.97;;;;;;;11.91;100.00;96354.25;4938995;29;20198;-78
2022/11/03 11:31:34;;;;;;;12.50;10.67;;;;;;;11.97;100.00;96349.88;4942652;29;20190;-78
2022/11/03 11:34:09;;;;;;;15.90;10.57;;;;;;;12.05;100.00;96352.84;4936251;29;20202;-78
2022/11/03 11:36:46;;;;;;;15.00;13.50;;;;;;;12.23;100.00;96343.03;4943408;29;20229;-75
2022/11/03 11:39:26;;;;;;;18.47;16.97;;;;;;;11.97;100.00;96334.09;4939537;29;20649;-76
2022/11/03 11:42:13;;;;;;;19.10;17.90;;;;;;;12.24;100.00;96337.53;4942880;29;20278;-76
2022/11/03 11:44:42;;;;;;;21.63;20.17;;;;;;;12.42;100.00;96331.16;4920455;29;20648;-75
2022/11/03 11:47:26;;;;;;;22.17;20.47;;;;;;;12.35;100.00;96339.22;4938319;29;20207;-75